Time;durP1;ratioP1;P1;durP2;ratioP2;P2;SDS_P1;SDS_P2;PMS_P1;PMS_P2;Temp;Humidity;BMP_temperature;BMP_pressure;BME280_temperature;BME280_humidity;BME280_pressure;Samples;Min_cycle;Max_cycle;Signal;HPM_P1;HPM_P2
2023/06/11 00:01:23;;;;;;;0.00;0.00;;;;;;;20.31;73.48;100176.63;5000142;28;20111;-72
2023/06/11 00:03:52;;;;;;;0.00;0.00;;;;;;;20.35;73.35;100178.38;5007790;28;20452;-74
2023/06/11 00:06:20;;;;;;;0.00;0.00;;;;;;;20.42;73.04;100188.16;4991361;28;20026;-73
2023/06/11 00:08:49;;;;;;;0.00;0.00;;;;;;;20.39;72.66;100190.44;4992458;28;20038;-72
2023/06/11 00:11:15;;;;;;;0.00;0.00;;;;;;;20.33;72.91;100188.22;4986037;28;20080;-75
2023/06/11 00:13:40;;;;;;;0.00;0.00;;;;;;;20.34;72.90;100193.44;5002354;28;20018;-74
2023/06/11 00:16:07;;;;;;;0.00;0.00;;;;;;;20.33;73.13;100185.44;4987968;28;20041;-74
2023/06/11 00:18:32;;;;;;;0.00;0.00;;;;;;;20.26;73.03;100180.41;5004686;28;20040;-74
2023/06/11 00:20:58;;;;;;;0.00;0.00;;;;;;;20.23;73.16;100194.97;5004116;28;20661;-75
2023/06/11 00:23:24;;;;;;;0.00;0.00;;;;;;;20.19;73.57;100196.78;5010441;28;20044;-74
2023/06/11 00:25:52;;;;;;;0.00;0.00;;;;;;;20.11;74.07;100190.16;5010491;28;20158;-74
2023/06/11 00:28:18;;;;;;;0.00;0.00;;;;;;;20.00;74.60;100184.16;5007446;28;20046;-73
2023/06/11 00:30:44;;;;;;;0.00;0.00;;;;;;;19.92;74.88;100178.66;4997350;28;20026;-74
2023/06/11 00:33:09;;;;;;;0.00;0.00;;;;;;;19.91;74.82;100175.09;5011234;28;20443;-72
2023/06/11 00:35:36;;;;;;;0.00;0.00;;;;;;;19.95;74.84;100164.94;4993786;28;20050;-74
2023/06/11 00:38:02;;;;;;;0.00;0.00;;;;;;;19.97;74.98;100164.59;4999642;28;20030;-76
2023/06/11 00:40:27;;;;;;;0.00;0.00;;;;;;;19.99;75.05;100156.75;5002654;28;20065;-74
2023/06/11 00:42:54;;;;;;;0.00;0.00;;;;;;;20.03;75.25;100149.38;4993380;28;20042;-73
2023/06/11 00:45:22;;;;;;;0.00;0.00;;;;;;;20.00;75.25;100156.41;5010237;28;20025;-75
2023/06/11 00:47:47;;;;;;;0.00;0.00;;;;;;;19.95;75.28;100156.63;5007335;28;20206;-73
2023/06/11 00:50:15;;;;;;;0.00;0.00;;;;;;;19.85;75.56;100143.94;5002529;28;20665;-74
2023/06/11 00:52:41;;;;;;;0.00;0.00;;;;;;;19.95;75.50;100159.41;5002819;28;20167;-73
2023/06/11 00:55:07;;;;;;;0.00;0.00;;;;;;;19.95;75.58;100156.63;5002820;28;20526;-73
2023/06/11 00:57:35;;;;;;;0.00;0.00;;;;;;;19.97;75.67;100159.84;5001458;28;20098;-73
2023/06/11 01:00:03;;;;;;;0.00;0.00;;;;;;;19.99;75.60;100160.34;5007677;28;20362;-72
2023/06/11 01:02:33;;;;;;;0.00;0.00;;;;;;;19.95;75.72;100161.38;4998721;28;20561;-74
2023/06/11 01:05:00;;;;;;;0.00;0.00;;;;;;;19.94;75.68;100163.31;5006348;28;20030;-73
2023/06/11 01:07:30;;;;;;;0.00;0.00;;;;;;;19.94;75.73;100159.72;4993107;28;20044;-73
2023/06/11 01:09:56;;;;;;;0.00;0.00;;;;;;;19.92;75.56;100160.06;4990471;28;20033;-73
2023/06/11 01:12:22;;;;;;;0.00;0.00;;;;;;;19.94;75.58;100166.09;5006257;28;20034;-73
2023/06/11 01:14:48;;;;;;;0.00;0.00;;;;;;;19.99;75.93;100165.91;4994531;28;20019;-72
2023/06/11 01:17:21;;;;;;;0.00;0.00;;;;;;;20.00;75.84;100156.41;4993748;28;20037;-73
2023/06/11 01:20:03;;;;;;;0.00;0.00;;;;;;;19.97;75.85;100140.44;4999400;28;20033;-72
2023/06/11 01:22:41;;;;;;;0.00;0.00;;;;;;;20.01;76.06;100141.38;4995215;28;20030;-74
2023/06/11 01:25:37;;;;;;;0.00;0.00;;;;;;;20.01;76.54;100124.75;5001313;28;20038;-74
2023/06/11 01:28:16;;;;;;;0.00;0.00;;;;;;;19.99;76.73;100120.66;5003064;28;20037;-73
2023/06/11 01:30:47;;;;;;;0.00;0.00;;;;;;;19.94;76.68;100118.91;5005120;28;20804;-74
2023/06/11 01:33:13;;;;;;;0.00;0.00;;;;;;;19.93;76.61;100128.41;4990575;28;21669;-75
2023/06/11 01:35:40;;;;;;;0.00;0.00;;;;;;;19.92;76.59;100118.44;5002145;28;20084;-72
2023/06/11 01:38:08;;;;;;;0.00;0.00;;;;;;;19.91;76.82;100111.25;4994847;28;20040;-71
2023/06/11 01:40:34;;;;;;;0.00;0.00;;;;;;;19.93;76.95;100106.22;5001841;28;20034;-72
2023/06/11 01:43:00;;;;;;;0.00;0.00;;;;;;;19.92;76.93;100101.81;4991455;28;20108;-73
2023/06/11 01:45:27;;;;;;;0.00;0.00;;;;;;;19.92;76.96;100098.19;4997351;28;20518;-72
2023/06/11 01:47:53;;;;;;;0.00;0.00;;;;;;;19.90;77.13;100084.66;4992584;28;20113;-73
2023/06/11 01:50:19;;;;;;;0.00;0.00;;;;;;;19.93;77.05;100074.84;4986486;28;20118;-73
2023/06/11 01:52:46;;;;;;;0.00;0.00;;;;;;;19.95;77.20;100053.94;4997714;28;20033;-73
2023/06/11 01:55:12;;;;;;;0.00;0.00;;;;;;;20.03;77.10;100050.31;4990440;28;20370;-74
2023/06/11 01:57:37;;;;;;;0.00;0.00;;;;;;;20.05;77.44;100047.19;4990736;28;20037;-72
2023/06/11 02:00:14;;;;;;;0.00;0.00;;;;;;;20.04;77.47;100049.13;4990513;28;20092;-73
2023/06/11 02:02:43;;;;;;;0.00;0.00;;;;;;;20.03;77.96;100049.47;5008135;28;20034;-73
2023/06/11 02:05:08;;;;;;;0.00;0.00;;;;;;;19.97;78.29;100046.09;5003222;28;20072;-72
2023/06/11 02:07:35;;;;;;;0.00;0.00;;;;;;;19.91;78.91;100053.00;4986658;28;20080;-73
2023/06/11 02:10:00;;;;;;;0.00;0.00;;;;;;;19.86;79.27;100056.78;5002531;28;20028;-72
2023/06/11 02:12:26;;;;;;;0.00;0.00;;;;;;;19.80;78.99;100062.84;4996162;28;20422;-72
2023/06/11 02:14:51;;;;;;;0.00;0.00;;;;;;;19.76;79.11;100070.22;4990975;28;20503;-72
2023/06/11 02:17:17;;;;;;;0.00;0.00;;;;;;;19.75;79.34;100080.50;5002588;28;20100;-73
2023/06/11 02:19:42;;;;;;;0.00;0.00;;;;;;;19.74;79.02;100080.81;4997287;28;20156;-72
2023/06/11 02:22:07;;;;;;;0.00;0.00;;;;;;;19.73;78.88;100079.19;5010283;28;20026;-73
2023/06/11 02:24:33;;;;;;;0.00;0.00;;;;;;;19.71;79.19;100074.81;5003102;28;20030;-73
2023/06/11 02:26:58;;;;;;;0.00;0.00;;;;;;;19.70;79.33;100084.28;4998469;28;20026;-73
2023/06/11 02:29:24;;;;;;;0.00;0.00;;;;;;;19.70;79.50;100084.28;4981666;28;20049;-72
2023/06/11 02:31:50;;;;;;;0.00;0.00;;;;;;;19.72;79.52;100083.94;4982149;28;20026;-73
2023/06/11 02:34:16;;;;;;;0.00;0.00;;;;;;;19.71;79.39;100080.38;4994546;28;20072;-73
2023/06/11 02:36:41;;;;;;;0.00;0.00;;;;;;;19.74;79.31;100087.19;4982094;28;20053;-73
2023/06/11 02:39:07;;;;;;;0.00;0.00;;;;;;;19.73;79.60;100093.06;5003489;28;20073;-72
2023/06/11 02:41:33;;;;;;;0.00;0.00;;;;;;;19.71;79.48;100088.69;5000589;28;20041;-73
2023/06/11 02:43:59;;;;;;;0.00;0.00;;;;;;;19.70;79.46;100089.03;5004708;28;20030;-72
2023/06/11 02:46:24;;;;;;;0.00;0.00;;;;;;;19.71;79.60;100094.22;4997699;28;20038;-72
2023/06/11 02:48:50;;;;;;;0.00;0.00;;;;;;;19.71;79.60;100091.47;4997633;28;20477;-73
2023/06/11 02:51:15;;;;;;;0.00;0.00;;;;;;;19.71;79.63;100093.41;4985438;28;20026;-75
2023/06/11 02:53:41;;;;;;;0.00;0.00;;;;;;;19.64;80.00;100088.41;4996917;28;20034;-72
2023/06/11 02:56:06;;;;;;;0.00;0.00;;;;;;;19.66;79.81;100090.84;4994417;28;20033;-72
2023/06/11 02:58:31;;;;;;;0.00;0.00;;;;;;;19.66;79.78;100094.41;5001093;28;20045;-73
2023/06/11 03:00:57;;;;;;;0.00;0.00;;;;;;;19.62;80.45;100090.69;4994815;28;20034;-73
2023/06/11 03:03:22;;;;;;;0.00;0.00;;;;;;;19.56;80.54;100085.69;4993554;28;20117;-73
2023/06/11 03:05:48;;;;;;;0.00;0.00;;;;;;;19.55;80.31;100090.41;4984671;28;20038;-73
2023/06/11 03:08:13;;;;;;;0.00;0.00;;;;;;;19.51;80.73;100095.81;4996284;28;20030;-74
2023/06/11 03:10:39;;;;;;;0.00;0.00;;;;;;;19.50;81.07;100098.91;5001463;28;20523;-72
2023/06/11 03:13:04;;;;;;;0.00;0.00;;;;;;;19.43;81.48;100093.88;4999001;28;20026;-72
2023/06/11 03:15:30;;;;;;;0.00;0.00;;;;;;;19.42;81.61;100094.22;4993088;28;20034;-73
2023/06/11 03:17:56;;;;;;;0.00;0.00;;;;;;;19.38;81.50;100093.25;5001317;28;20054;-72
2023/06/11 03:20:21;;;;;;;0.00;0.00;;;;;;;19.36;81.90;100099.97;4989594;28;22397;-73
2023/06/11 03:22:46;;;;;;;0.00;0.00;;;;;;;19.31;81.78;100091.81;5005559;28;20109;-72
2023/06/11 03:25:13;;;;;;;0.00;0.00;;;;;;;19.35;82.17;100098.34;4979487;28;20054;-72
2023/06/11 03:27:39;;;;;;;0.00;0.00;;;;;;;19.36;82.14;100091.66;4996354;28;20045;-72
2023/06/11 03:30:05;;;;;;;0.00;0.00;;;;;;;19.33;82.49;100094.25;4983367;28;20569;-72
2023/06/11 03:32:31;;;;;;;0.00;0.00;;;;;;;19.33;82.67;100100.63;4995856;28;20034;-72
2023/06/11 03:34:56;;;;;;;0.00;0.00;;;;;;;19.31;82.44;100099.34;4989602;28;20037;-72
2023/06/11 03:37:22;;;;;;;0.00;0.00;;;;;;;19.27;83.01;100104.72;4999381;28;20034;-72
2023/06/11 03:39:47;;;;;;;0.00;0.00;;;;;;;19.24;83.18;100108.16;5009119;28;20483;-73
2023/06/11 03:42:13;;;;;;;0.00;0.00;;;;;;;19.17;83.23;100096.78;5003417;28;20571;-72
2023/06/11 03:44:38;;;;;;;0.00;0.00;;;;;;;19.15;83.08;100099.06;4994804;28;20057;-72
2023/06/11 03:47:04;;;;;;;0.00;0.00;;;;;;;19.13;83.12;100112.47;4982592;28;20346;-73
2023/06/11 03:49:29;;;;;;;0.00;0.00;;;;;;;19.09;83.15;100108.72;4985096;28;20042;-71
2023/06/11 03:51:55;;;;;;;0.00;0.00;;;;;;;19.09;83.32;100105.94;4988138;28;20389;-73
2023/06/11 03:54:21;;;;;;;0.00;0.00;;;;;;;19.08;83.82;100098.78;5011147;28;20058;-72
2023/06/11 03:56:46;;;;;;;0.00;0.00;;;;;;;19.08;83.92;100115.41;4980838;28;20041;-72
2023/06/11 03:59:12;;;;;;;0.00;0.00;;;;;;;19.04;83.72;100114.44;4999016;28;20113;-71
2023/06/11 04:01:37;;;;;;;0.00;0.00;;;;;;;19.04;83.75;100114.44;4995559;28;20515;-72
2023/06/11 04:04:03;;;;;;;0.00;0.00;;;;;;;18.98;83.87;100105.47;5001051;28;20446;-72
2023/06/11 04:06:29;;;;;;;0.00;0.00;;;;;;;19.02;84.04;100115.56;4999376;28;20037;-73
2023/06/11 04:08:55;;;;;;;0.00;0.00;;;;;;;19.02;83.58;100112.78;5006284;28;20080;-73
2023/06/11 04:11:20;;;;;;;0.00;0.00;;;;;;;19.04;83.75;100115.25;5005625;28;20038;-72
2023/06/11 04:13:50;;;;;;;0.00;0.00;;;;;;;19.05;83.92;100116.88;4985499;28;20038;-73
2023/06/11 04:16:18;;;;;;;0.00;0.00;;;;;;;19.04;83.62;100108.88;4986758;28;20064;-72
2023/06/11 04:18:44;;;;;;;0.00;0.00;;;;;;;19.02;83.74;100118.34;4994243;28;20034;-72
2023/06/11 04:21:09;;;;;;;0.00;0.00;;;;;;;19.02;84.18;100107.25;5015061;28;20037;-72
2023/06/11 04:23:36;;;;;;;0.00;0.00;;;;;;;19.05;84.24;100110.53;4972820;28;20040;-73
2023/06/11 04:26:01;;;;;;;0.00;0.00;;;;;;;19.06;83.57;100106.63;5003743;28;20050;-73
2023/06/11 04:28:27;;;;;;;0.00;0.00;;;;;;;19.10;84.00;100118.63;5004120;28;20037;-72
2023/06/11 04:30:57;;;;;;;0.00;0.00;;;;;;;19.11;83.62;100109.19;5000021;28;20021;-72
2023/06/11 04:33:32;;;;;;;0.00;0.00;;;;;;;19.12;83.55;100105.28;4990330;28;20026;-73
2023/06/11 04:36:00;;;;;;;0.00;0.00;;;;;;;19.14;83.29;100108.53;4995607;28;20482;-73
2023/06/11 04:38:28;;;;;;;0.00;0.00;;;;;;;19.19;83.57;100106.38;4991498;28;20126;-73
2023/06/11 04:40:54;;;;;;;0.00;0.00;;;;;;;19.20;82.95;100109.97;5006739;28;20048;-73
2023/06/11 04:43:22;;;;;;;0.00;0.00;;;;;;;19.26;83.04;100111.44;5004182;28;20025;-74
2023/06/11 04:45:49;;;;;;;0.00;0.00;;;;;;;19.32;82.84;100115.63;4991877;28;20131;-72
2023/06/11 04:48:21;;;;;;;0.00;0.00;;;;;;;19.38;83.26;100118.22;4981614;28;20029;-72
2023/06/11 04:50:51;;;;;;;0.00;0.00;;;;;;;19.44;82.60;100116.91;5004081;28;20026;-72
2023/06/11 04:53:22;;;;;;;0.00;0.00;;;;;;;19.49;82.53;100125.00;4997861;28;20667;-72
2023/06/11 04:55:54;;;;;;;0.00;0.00;;;;;;;19.53;82.42;100114.88;5010426;28;20038;-72
2023/06/11 04:58:24;;;;;;;0.00;0.00;;;;;;;19.61;82.21;100127.91;4988107;28;20022;-71
2023/06/11 05:00:51;;;;;;;0.00;0.00;;;;;;;19.66;82.14;100124.94;4995479;28;20034;-71
2023/06/11 05:03:17;;;;;;;0.00;0.00;;;;;;;19.70;81.73;100125.88;4990387;28;20040;-73
2023/06/11 05:05:49;;;;;;;0.00;0.00;;;;;;;19.80;81.89;100126.66;5008134;28;20041;-73
2023/06/11 05:08:16;;;;;;;0.00;0.00;;;;;;;19.86;81.57;100133.66;4999454;28;20436;-74
2023/06/11 05:10:42;;;;;;;0.00;0.00;;;;;;;19.90;81.17;100123.50;5004409;28;20045;-72
2023/06/11 05:13:07;;;;;;;0.00;0.00;;;;;;;19.97;80.98;100129.34;5003521;28;20026;-72
2023/06/11 05:15:33;;;;;;;0.00;0.00;;;;;;;20.05;81.09;100134.03;4958163;28;20171;-73
2023/06/11 05:18:00;;;;;;;0.00;0.00;;;;;;;20.08;80.65;100131.72;5008157;28;20026;-72
2023/06/11 05:20:26;;;;;;;0.00;0.00;;;;;;;20.13;80.58;100135.09;4968002;28;20031;-72
2023/06/11 05:22:58;;;;;;;0.00;0.00;;;;;;;20.14;80.60;100133.16;4988319;28;20173;-73
2023/06/11 05:25:27;;;;;;;0.00;0.00;;;;;;;20.19;80.14;100142.09;4984829;28;20084;-71
2023/06/11 05:27:53;;;;;;;0.00;0.00;;;;;;;20.23;80.10;100142.22;5006248;28;20367;-74
2023/06/11 05:30:25;;;;;;;0.00;0.00;;;;;;;20.23;79.68;100136.66;5002580;28;20029;-75
2023/06/11 05:32:51;;;;;;;0.00;0.00;;;;;;;20.28;79.70;100132.88;4993493;28;20025;-76
2023/06/11 05:35:17;;;;;;;0.00;0.00;;;;;;;20.43;79.61;100148.09;5004203;28;20032;-77
2023/06/11 05:37:43;;;;;;;0.00;0.00;;;;;;;20.57;79.38;100143.91;4989572;28;20376;-75
2023/06/11 05:40:11;;;;;;;0.00;0.00;;;;;;;20.70;78.77;100147.56;5000301;28;20519;-76
2023/06/11 05:42:37;;;;;;;0.00;0.00;;;;;;;20.79;78.52;100152.22;5002942;28;20042;-74
2023/06/11 05:45:03;;;;;;;0.00;0.00;;;;;;;20.85;78.28;100148.91;4984011;28;20022;-74
2023/06/11 05:47:32;;;;;;;0.00;0.00;;;;;;;20.83;77.84;100153.19;4987589;28;20038;-75
2023/06/11 05:50:00;;;;;;;0.00;0.00;;;;;;;20.80;77.94;100139.97;4985019;28;20030;-75
2023/06/11 05:52:26;;;;;;;0.00;0.00;;;;;;;20.75;77.64;100125.13;5013409;28;20025;-75
2023/06/11 05:55:03;;;;;;;0.00;0.00;;;;;;;20.75;77.37;100127.91;4982723;28;20033;-75
2023/06/11 05:57:49;;;;;;;0.00;0.00;;;;;;;20.92;77.56;100151.13;5006753;28;20073;-76
2023/06/11 06:00:18;;;;;;;0.00;0.00;;;;;;;20.78;77.34;100131.16;4983446;28;20105;-76
2023/06/11 06:02:43;;;;;;;0.00;0.00;;;;;;;20.83;77.56;100136.50;4994006;28;20026;-77
2023/06/11 06:05:38;;;;;;;0.00;0.00;;;;;;;20.85;77.50;100145.28;5011971;28;20575;-75
2023/06/11 06:08:07;;;;;;;0.00;0.00;;;;;;;20.79;76.97;100136.38;5004000;28;20052;-76
2023/06/11 06:10:40;;;;;;;0.00;0.00;;;;;;;20.94;77.37;100148.81;5006746;28;20403;-75
2023/06/11 06:13:06;;;;;;;0.00;0.00;;;;;;;20.81;77.06;100116.56;4995716;28;20630;-76
2023/06/11 06:15:59;;;;;;;;;;;;;;;;;;;;;
2023/06/11 06:18:27;;;;;;;0.00;0.00;;;;;;;21.14;76.05;100141.56;4986296;28;20022;-77
2023/06/11 06:21:20;;;;;;;0.00;0.00;;;;;;;21.26;75.51;100138.81;4998533;28;20119;-76
2023/06/11 06:23:58;;;;;;;;;;;;;;;;;;;;;
2023/06/11 06:26:24;;;;;;;0.00;0.00;;;;;;;21.53;74.71;100142.09;5000151;28;20464;-75
2023/06/11 06:32:04;;;;;;;0.00;0.00;;;;;;;21.89;73.48;100125.72;4999951;28;20536;-76
2023/06/11 06:34:30;;;;;;;0.00;0.00;;;;;;;22.12;71.95;100157.50;5006942;28;20041;-75
2023/06/11 06:37:03;;;;;;;0.00;0.00;;;;;;;22.14;72.00;100154.34;5001315;28;20053;-76
2023/06/11 06:42:19;;;;;;;0.00;0.00;;;;;;;22.31;70.37;100158.81;4999099;28;20121;-77
2023/06/11 06:44:45;;;;;;;0.00;0.00;;;;;;;22.30;69.88;100158.03;4972995;28;20034;-78
2023/06/11 06:47:14;;;;;;;0.00;0.00;;;;;;;22.39;69.84;100159.91;5005885;28;20026;-77
2023/06/11 06:50:16;;;;;;;;;;;;;;;;;;;;;
2023/06/11 06:52:44;;;;;;;0.00;0.00;;;;;;;22.41;68.94;100169.50;4988216;28;20035;-78
2023/06/11 06:55:11;;;;;;;0.00;0.00;;;;;;;22.53;69.45;100176.19;4969104;28;20084;-77
2023/06/11 06:58:17;;;;;;;0.00;0.00;;;;;;;22.39;69.08;100149.56;5001120;28;20032;-77
2023/06/11 07:00:45;;;;;;;0.00;0.00;;;;;;;22.58;69.28;100154.47;4992717;28;20105;-77
2023/06/11 07:03:14;;;;;;;0.00;0.00;;;;;;;22.88;69.16;100182.00;5014593;28;20034;-77
2023/06/11 07:05:43;;;;;;;0.00;0.00;;;;;;;22.98;68.39;100175.09;5001771;28;20030;-77
2023/06/11 07:08:12;;;;;;;0.00;0.00;;;;;;;23.16;68.15;100192.34;5006372;28;20030;-77
2023/06/11 07:10:50;;;;;;;0.00;0.00;;;;;;;23.17;67.75;100182.78;4968843;28;20721;-77
2023/06/11 07:13:18;;;;;;;0.00;0.00;;;;;;;23.18;68.09;100173.28;5006458;28;20044;-75
2023/06/11 07:15:46;;;;;;;0.00;0.00;;;;;;;23.17;67.87;100168.84;5005257;28;21638;-75
2023/06/11 07:18:14;;;;;;;0.00;0.00;;;;;;;23.29;67.48;100181.91;5006675;28;20030;-74
2023/06/11 07:20:44;;;;;;;0.00;0.00;;;;;;;23.32;67.53;100186.78;4995886;28;20030;-76
2023/06/11 07:23:10;;;;;;;0.00;0.00;;;;;;;23.31;67.16;100193.53;5002920;28;20040;-77
2023/06/11 07:25:45;;;;;;;0.00;0.00;;;;;;;23.42;66.75;100186.25;5002812;28;20383;-76
2023/06/11 07:28:31;;;;;;;;;;;;;;;;;;;;;
2023/06/11 07:31:00;;;;;;;0.00;0.00;;;;;;;23.52;66.18;100163.41;4991455;28;20014;-75
2023/06/11 07:33:25;;;;;;;0.00;0.00;;;;;;;23.60;65.55;100172.75;5003961;28;20036;-75
2023/06/11 07:35:54;;;;;;;0.00;0.00;;;;;;;23.75;65.48;100173.91;4989240;28;20032;-76
2023/06/11 07:38:20;;;;;;;0.00;0.00;;;;;;;23.97;65.31;100199.59;4990322;28;20022;-75
2023/06/11 07:40:46;;;;;;;0.00;0.00;;;;;;;24.01;65.22;100203.28;4987256;28;20050;-75
2023/06/11 07:43:11;;;;;;;0.00;0.00;;;;;;;23.99;64.67;100212.03;4998098;28;20476;-76
2023/06/11 07:45:37;;;;;;;0.00;0.00;;;;;;;23.85;64.52;100195.69;5001422;28;20038;-76
2023/06/11 07:48:07;;;;;;;0.00;0.00;;;;;;;23.86;64.84;100190.97;4998204;28;21352;-75
2023/06/11 07:50:33;;;;;;;0.00;0.00;;;;;;;23.95;64.41;100207.53;4997106;28;20081;-75
2023/06/11 07:52:58;;;;;;;0.00;0.00;;;;;;;23.84;64.54;100223.97;5011949;28;20439;-76
2023/06/11 07:55:32;;;;;;;0.00;0.00;;;;;;;23.73;64.60;100211.72;4984064;28;20030;-76
2023/06/11 07:58:08;;;;;;;;;;;;;;;;;;;;;
2023/06/11 08:00:34;;;;;;;0.00;0.00;;;;;;;23.62;64.85;100231.78;5001646;28;20038;-76
2023/06/11 08:03:04;;;;;;;0.00;0.00;;;;;;;23.37;65.18;100219.19;4983355;28;20490;-75
2023/06/11 08:05:33;;;;;;;0.00;0.00;;;;;;;23.20;65.41;100234.28;5002815;28;20037;-75
2023/06/11 08:08:11;;;;;;;;;;;;;;;;;;;;;
2023/06/11 08:10:45;;;;;;;0.00;0.00;;;;;;;22.82;66.30;100220.47;5004748;28;20033;-76
2023/06/11 08:13:34;;;;;;;0.00;0.00;;;;;;;22.82;66.20;100226.03;4994972;28;20072;-76
2023/06/11 08:16:19;;;;;;;0.00;0.00;;;;;;;22.63;67.17;100231.44;5009692;28;20033;-76
2023/06/11 08:18:47;;;;;;;0.00;0.00;;;;;;;22.48;68.19;100242.16;4993934;28;20547;-76
2023/06/11 08:21:21;;;;;;;0.00;0.00;;;;;;;22.25;67.78;100224.28;4995190;28;20436;-76
2023/06/11 08:23:51;;;;;;;0.00;0.00;;;;;;;22.17;68.02;100236.38;4988943;28;20042;-76
2023/06/11 08:26:21;;;;;;;0.00;0.00;;;;;;;22.10;69.46;100232.19;5017583;28;20499;-75
2023/06/11 08:28:47;;;;;;;0.00;0.00;;;;;;;22.24;70.05;100270.00;4998569;28;20125;-75
2023/06/11 08:31:21;;;;;;;0.00;0.00;;;;;;;22.13;71.08;100269.66;5001310;28;20101;-77
2023/06/11 08:33:50;;;;;;;0.00;0.00;;;;;;;22.09;71.02;100258.44;4999375;28;20030;-76
2023/06/11 08:36:23;;;;;;;0.00;0.00;;;;;;;22.18;70.79;100263.03;4984308;28;20036;-75
2023/06/11 08:39:06;;;;;;;0.00;0.00;;;;;;;22.00;71.86;100243.78;5007659;28;20069;-76
2023/06/11 08:41:32;;;;;;;0.00;0.00;;;;;;;21.93;72.67;100246.34;4978470;28;20137;-76
2023/06/11 08:44:28;;;;;;;;;;;;;;;;;;;;;
2023/06/11 08:47:10;;;;;;;0.00;0.00;;;;;;;21.59;73.68;100245.63;4998551;28;20460;-76
2023/06/11 08:50:06;;;;;;;;;;;;;;;;;;;;;
2023/06/11 08:52:41;;;;;;;0.00;0.00;;;;;;;21.03;76.75;100252.38;4997546;28;20579;-76
2023/06/11 08:55:07;;;;;;;0.00;0.00;;;;;;;20.97;77.89;100258.47;5001325;28;20025;-76
2023/06/11 08:58:07;;;;;;;0.00;0.00;;;;;;;20.82;78.81;100257.97;4997947;28;20054;-77
2023/06/11 09:00:46;;;;;;;;;;;;;;;;;;;;;
2023/06/11 09:03:25;;;;;;;;;;;;;;;;;;;;;
2023/06/11 09:06:18;;;;;;;;;;;;;;;;;;;;;
2023/06/11 09:09:07;;;;;;;0.00;0.00;;;;;;;19.44;87.92;100250.00;5000608;28;20018;-78
2023/06/11 09:20:07;;;;;;;0.00;0.00;;;;;;;19.19;91.44;100271.88;4994885;28;20077;-76
2023/06/11 09:22:37;;;;;;;0.00;0.00;;;;;;;19.04;92.16;100248.28;5006003;28;20197;-75
2023/06/11 09:25:04;;;;;;;0.00;0.00;;;;;;;19.27;91.94;100279.34;4984139;28;20503;-75
2023/06/11 09:27:30;;;;;;;0.00;0.00;;;;;;;19.31;91.97;100280.34;5000204;28;20037;-76
2023/06/11 09:29:56;;;;;;;0.00;0.00;;;;;;;19.27;92.29;100290.44;4983929;28;20145;-76
2023/06/11 09:32:25;;;;;;;0.00;0.00;;;;;;;19.27;92.31;100295.19;4989566;28;20114;-73
2023/06/11 09:34:50;;;;;;;0.00;0.00;;;;;;;19.16;92.71;100275.31;4995512;28;20034;-74
2023/06/11 09:37:16;;;;;;;0.00;0.00;;;;;;;19.23;92.70;100292.25;5001585;28;20111;-75
2023/06/11 09:39:49;;;;;;;0.00;0.00;;;;;;;19.13;93.50;100275.97;4993304;28;20046;-76
2023/06/11 09:42:27;;;;;;;0.00;0.00;;;;;;;19.11;93.59;100270.72;4999003;28;20026;-76
2023/06/11 09:44:57;;;;;;;0.00;0.00;;;;;;;19.12;93.69;100277.91;4991074;28;20107;-74
2023/06/11 09:47:25;;;;;;;0.00;0.00;;;;;;;19.13;94.42;100273.19;5002295;28;20030;-75
2023/06/11 09:49:51;;;;;;;0.00;0.00;;;;;;;19.18;94.20;100276.59;4994196;28;20419;-73
2023/06/11 09:52:17;;;;;;;0.00;0.00;;;;;;;19.27;94.39;100267.47;5014818;28;20046;-73
2023/06/11 09:54:44;;;;;;;0.00;0.00;;;;;;;19.32;93.50;100268.09;4977755;28;20368;-72
2023/06/11 09:57:11;;;;;;;0.00;0.00;;;;;;;19.33;93.08;100261.44;4991739;28;20057;-73
2023/06/11 09:59:38;;;;;;;0.00;0.00;;;;;;;19.47;92.66;100265.97;5009404;28;20015;-72
2023/06/11 10:02:05;;;;;;;0.00;0.00;;;;;;;19.41;91.99;100251.47;4986214;28;20034;-75
2023/06/11 10:04:30;;;;;;;0.00;0.00;;;;;;;19.55;91.62;100262.34;4993159;28;20042;-74
2023/06/11 10:06:56;;;;;;;0.00;0.00;;;;;;;19.56;91.49;100268.72;4987482;28;20396;-73
2023/06/11 10:09:22;;;;;;;0.00;0.00;;;;;;;19.57;90.43;100265.59;5001183;28;20167;-71
2023/06/11 10:11:48;;;;;;;0.00;0.00;;;;;;;19.68;89.84;100266.88;4991432;28;20042;-71
2023/06/11 10:14:17;;;;;;;0.00;0.00;;;;;;;19.83;89.15;100267.50;4987831;28;20112;-72
2023/06/11 10:16:50;;;;;;;0.00;0.00;;;;;;;20.02;88.64;100265.13;4995493;28;20034;-71
2023/06/11 10:19:18;;;;;;;0.00;0.00;;;;;;;20.20;87.61;100265.06;4996784;28;20030;-71
2023/06/11 10:21:49;;;;;;;0.00;0.00;;;;;;;20.38;86.43;100276.84;4992484;28;20041;-70
2023/06/11 10:24:26;;;;;;;0.00;0.00;;;;;;;20.54;85.58;100275.09;4998561;28;20471;-71
2023/06/11 10:27:05;;;;;;;0.00;0.00;;;;;;;21.00;84.02;100275.28;5014745;28;20069;-72
2023/06/11 10:29:37;;;;;;;0.00;0.00;;;;;;;21.44;82.34;100267.34;5017182;28;20029;-70
2023/06/11 10:32:02;;;;;;;0.00;0.00;;;;;;;21.86;81.23;100269.19;4993572;28;20036;-71
2023/06/11 10:34:39;;;;;;;0.00;0.00;;;;;;;22.37;79.02;100280.03;4993753;28;21740;-72
2023/06/11 10:37:05;;;;;;;0.00;0.00;;;;;;;22.73;77.91;100269.16;4987465;28;20042;-70
2023/06/11 10:39:30;;;;;;;0.00;0.00;;;;;;;23.10;75.93;100271.81;4979680;28;20104;-70
2023/06/11 10:42:01;;;;;;;0.00;0.00;;;;;;;23.42;75.43;100278.34;4999267;28;20038;-73
2023/06/11 10:44:26;;;;;;;0.00;0.00;;;;;;;23.78;73.96;100268.09;4987127;28;20026;-71
2023/06/11 10:46:53;;;;;;;0.00;0.00;;;;;;;24.04;72.69;100272.38;5006743;28;20028;-73
2023/06/11 10:49:25;;;;;;;0.00;0.00;;;;;;;24.01;71.59;100276.69;4998318;28;20030;-72
2023/06/11 10:51:51;;;;;;;0.00;0.00;;;;;;;24.10;70.87;100273.72;4995610;28;20104;-72
2023/06/11 10:54:27;;;;;;;0.00;0.00;;;;;;;24.35;70.52;100276.28;4996609;28;20091;-73
2023/06/11 10:56:54;;;;;;;0.00;0.00;;;;;;;24.38;68.98;100267.97;5003885;28;20029;-73
2023/06/11 10:59:20;;;;;;;0.00;0.00;;;;;;;24.55;68.86;100272.34;5017536;28;20095;-71
2023/06/11 11:01:46;;;;;;;0.00;0.00;;;;;;;24.65;67.94;100270.19;5012274;28;20077;-72
2023/06/11 11:04:11;;;;;;;0.00;0.00;;;;;;;24.62;67.49;100266.16;4991978;28;20030;-72
2023/06/11 11:06:39;;;;;;;0.00;0.00;;;;;;;24.59;67.52;100261.31;4988421;28;20034;-74
2023/06/11 11:09:04;;;;;;;0.00;0.00;;;;;;;24.43;67.33;100261.31;4976295;28;20108;-72
2023/06/11 11:11:30;;;;;;;0.00;0.00;;;;;;;24.38;67.22;100261.59;4995087;28;20061;-72
2023/06/11 11:13:59;;;;;;;0.00;0.00;;;;;;;24.11;67.50;100264.16;4990844;28;20034;-73
2023/06/11 11:16:25;;;;;;;0.00;0.00;;;;;;;24.06;67.89;100261.63;4993409;28;20389;-71
2023/06/11 11:18:51;;;;;;;0.00;0.00;;;;;;;24.35;68.19;100267.91;4987562;28;20038;-73
2023/06/11 11:21:18;;;;;;;0.00;0.00;;;;;;;24.67;67.29;100256.66;4991517;28;20030;-73
2023/06/11 11:23:48;;;;;;;0.00;0.00;;;;;;;24.95;66.31;100264.03;4980705;28;20049;-73
2023/06/11 11:26:14;;;;;;;0.00;0.00;;;;;;;25.17;66.21;100268.88;4986332;28;20581;-73
2023/06/11 11:28:39;;;;;;;0.00;0.00;;;;;;;25.33;65.55;100268.03;4985416;28;20025;-74
2023/06/11 11:31:05;;;;;;;0.00;0.00;;;;;;;25.45;65.41;100273.44;4991843;28;20864;-73
2023/06/11 11:33:33;;;;;;;0.00;0.00;;;;;;;25.48;65.42;100269.91;4989070;28;20441;-74
2023/06/11 11:36:02;;;;;;;0.00;0.00;;;;;;;25.57;65.55;100262.09;4982877;28;20057;-72
2023/06/11 11:38:34;;;;;;;0.00;0.00;;;;;;;25.84;64.71;100270.53;4988591;28;20034;-73
2023/06/11 11:40:59;;;;;;;0.00;0.00;;;;;;;25.98;64.70;100261.56;4991560;28;20050;-73
2023/06/11 11:43:25;;;;;;;0.00;0.00;;;;;;;26.03;64.09;100258.47;4996063;28;20506;-75
2023/06/11 11:45:52;;;;;;;0.00;0.00;;;;;;;26.13;63.58;100266.25;4989338;28;20085;-72
2023/06/11 11:48:18;;;;;;;0.00;0.00;;;;;;;26.18;63.06;100259.53;4993410;28;20397;-72
2023/06/11 11:50:45;;;;;;;0.00;0.00;;;;;;;26.05;63.20;100260.91;4983743;28;20049;-73
2023/06/11 11:53:15;;;;;;;0.00;0.00;;;;;;;25.89;63.34;100249.81;4980056;28;21577;-72
2023/06/11 11:55:47;;;;;;;0.00;0.00;;;;;;;25.78;63.50;100252.44;4986461;28;20100;-73
2023/06/11 11:58:15;;;;;;;0.00;0.00;;;;;;;25.67;63.53;100251.44;5000632;28;20036;-72
2023/06/11 12:00:58;;;;;;;0.00;0.00;;;;;;;25.51;63.73;100252.38;4988520;28;20053;-73
2023/06/11 12:03:23;;;;;;;0.00;0.00;;;;;;;25.42;64.72;100251.78;4989717;28;20030;-72